createdAt,value
2022-12-25T00:13:33.019Z,6.77
2022-12-25T00:28:23.154Z,7.23
2022-12-25T00:43:15.760Z,5.26
2022-12-25T00:58:07.079Z,4.87
2022-12-25T01:12:57.542Z,6.10
2022-12-25T01:27:48.915Z,4.51
2022-12-25T01:42:40.684Z,4.19
2022-12-25T01:57:32.788Z,7.19
2022-12-25T02:12:25.157Z,5.56
2022-12-25T02:27:19.006Z,5.26
2022-12-25T02:42:13.166Z,6.31
2022-12-25T02:57:21.885Z,5.97
2022-12-25T03:12:39.155Z,10.79
2022-12-25T03:27:35.560Z,7.97
2022-12-25T03:42:41.299Z,8.84
2022-12-25T03:57:55.085Z,9.78
2022-12-25T04:13:11.448Z,6.73
2022-12-25T04:28:26.498Z,9.19
2022-12-25T04:43:23.092Z,6.31
2022-12-25T04:58:14.265Z,9.22
2022-12-25T05:13:05.056Z,10.71
2022-12-25T05:27:56.250Z,7.04
2022-12-25T05:42:47.115Z,7.64
2022-12-25T05:57:38.683Z,5.74
2022-12-25T06:12:29.657Z,5.37
2022-12-25T06:27:21.371Z,4.63
2022-12-25T06:42:12.551Z,5.34
2022-12-25T06:57:02.524Z,6.10
2022-12-25T07:11:53.779Z,3.22
2022-12-25T07:26:45.165Z,3.31
2022-12-25T07:41:36.222Z,4.92
2022-12-25T07:56:27.014Z,4.87
2022-12-25T08:11:18.089Z,3.68
2022-12-25T08:26:13.107Z,4.50
2022-12-25T08:41:05.696Z,4.28
2022-12-25T08:55:59.467Z,6.30
2022-12-25T09:10:58.510Z,5.33
2022-12-25T09:25:49.041Z,3.88
2022-12-25T09:40:40.890Z,6.33
2022-12-25T09:55:37.788Z,5.01
2022-12-25T10:10:41.175Z,4.44
2022-12-25T10:25:34.516Z,4.57
2022-12-25T10:40:26.589Z,4.33
2022-12-25T10:55:23.498Z,3.99
2022-12-25T11:10:16.378Z,3.71
2022-12-25T11:25:14.544Z,4.67
2022-12-25T11:40:14.615Z,4.01
2022-12-25T11:55:19.969Z,5.23
2022-12-25T12:10:18.546Z,3.22
2022-12-25T12:25:16.148Z,3.90
2022-12-25T12:40:09.843Z,3.38
2022-12-25T12:55:02.293Z,3.39
2022-12-25T13:10:08.737Z,3.33
2022-12-25T13:25:04.448Z,4.28
2022-12-25T13:39:58.688Z,5.30
2022-12-25T13:54:52.986Z,3.31
2022-12-25T14:09:45.502Z,2.22
2022-12-25T14:24:40.013Z,2.94
2022-12-25T14:39:37.810Z,2.14
2022-12-25T14:54:33.069Z,4.63
2022-12-25T15:09:23.782Z,4.38
2022-12-25T15:24:13.770Z,3.70
2022-12-25T15:39:04.664Z,2.98
2022-12-25T15:53:55.545Z,6.03
2022-12-25T16:08:46.649Z,7.57
2022-12-25T16:23:38.201Z,6.24
2022-12-25T16:38:29.518Z,6.41
2022-12-25T16:53:20.544Z,5.81
2022-12-25T17:08:11.953Z,7.73
2022-12-25T17:23:01.850Z,6.02
2022-12-25T17:37:53.414Z,6.74
2022-12-25T17:52:43.601Z,8.63
2022-12-25T18:07:35.455Z,7.40
2022-12-25T18:22:26.227Z,10.78
2022-12-25T18:37:17.584Z,10.34
2022-12-25T18:52:48.335Z,11.04
2022-12-25T19:07:00.567Z,10.60
2022-12-25T19:21:54.596Z,10.06
2022-12-25T19:36:48.621Z,7.88
2022-12-25T19:51:39.739Z,7.41
2022-12-25T20:06:30.556Z,9.94
2022-12-25T20:21:21.966Z,4.48
2022-12-25T20:36:13.728Z,4.30
2022-12-25T20:51:14.638Z,3.70
2022-12-25T21:06:10.139Z,4.46
2022-12-25T21:21:01.656Z,4.00
2022-12-25T21:35:52.916Z,4.02
2022-12-25T21:51:02.501Z,3.59
2022-12-25T22:06:21.489Z,4.14
2022-12-25T22:21:18.294Z,4.42
2022-12-25T22:36:12.929Z,3.17
2022-12-25T22:51:04.024Z,4.28
2022-12-25T23:05:55.497Z,3.56
2022-12-25T23:21:06.216Z,3.28
2022-12-25T23:36:02.419Z,4.50
2022-12-25T23:50:53.211Z,3.84
